This is the latest recevied weather packets stored in our database for station/object K7OLI-13. If no packets are shown the sender has not sent any weather packets the latest 10 day(s).
| Time | Temp. | Humidity | Pressure | Rain* | Wind** | Luminosity | Snow |
|---|---|---|---|---|---|---|---|
| 1777847435 | 33.33° C | 35% | 1005.3 hPa | 0 mm | - | - | - |
| 1777842643 | 30.56° C | 42% | 1006.3 hPa | 0 mm | - | - | - |
| 1777839628 | 28.89° C | 47% | 1007.3 hPa | 0 mm | - | - | - |
| 1777838423 | 28.33° C | 51% | 1007.3 hPa | 0 mm | - | - | - |
| 1777836628 | 27.22° C | 54% | 1007.3 hPa | 0 mm | - | - | - |
| 1777835425 | 26.11° C | 56% | 1008.1 hPa | 0 mm | - | - | - |
| 1777834833 | 26.11° C | 56% | 1008.3 hPa | 0 mm | - | - | - |
| 1777833020 | 25° C | 57% | 1008.3 hPa | 0 mm | - | - | - |
| 1777824028 | 20.56° C | 71% | 1009.2 hPa | 0 mm | - | - | - |
| 1777822824 | 19.44° C | 75% | 1009.2 hPa | 0 mm | - | - | - |
| 1777821642 | 18.33° C | 78% | 1009.2 hPa | 0 mm | - | - | - |
| 1777816221 | 11.11° C | 99% | 1008.1 hPa | 0 mm | - | - | - |
| 1777815647 | 10° C | 99% | 1008.1 hPa | 0 mm | - | - | - |
| 1777813823 | 10° C | 99% | 1008.1 hPa | 0 mm | - | - | - |
| 1777812630 | 10° C | 99% | 1008.1 hPa | 0 mm | - | - | - |
| 1777812021 | 10.56° C | 99% | 1008.1 hPa | 0 mm | - | - | - |
| 1777810225 | 11.11° C | 99% | 1008.2 hPa | 0 mm | - | - | - |
| 1777808431 | 11.67° C | 99% | 1008.2 hPa | 0 mm | - | - | - |
| 1777804231 | 11.67° C | 99% | 1008.1 hPa | 0 mm | - | - | - |
| 1777802437 | 11.67° C | 99% | 1008.1 hPa | 0 mm | - | - | - |
| 1777789820 | 14.44° C | 91% | 1009.1 hPa | 0 mm | - | - | - |
| 1777785032 | 15.56° C | 87% | 1009.1 hPa | 0 mm | - | - | - |
| 1777782031 | 16.11° C | 84% | 1009.1 hPa | 0 mm | - | - | - |
| 1777781421 | 16.67° C | 83% | 1009.1 hPa | 0 mm | - | - | - |
| 1777779626 | 17.22° C | 80% | 1008.3 hPa | 0 mm | - | - | - |
* Rain latest hour (hover to see other rain measurements)
** Current wind speed in m/s (hover to see current wind gust speed)